Time;durP1;ratioP1;P1;durP2;ratioP2;P2;SDS_P1;SDS_P2;PMS_P1;PMS_P2;Temp;Humidity;BMP_temperature;BMP_pressure;BME280_temperature;BME280_humidity;BME280_pressure;Samples;Min_cycle;Max_cycle;Signal;HPM_P1;HPM_P2
2022/02/23 00:00:28;;;;;;;0.38;0.00;;;;;;;;;;5072958;28;20259;-47
2022/02/23 00:02:54;;;;;;;0.90;0.20;;;;;;;;;;5063233;28;20047;-46
2022/02/23 00:05:19;;;;;;;0.10;0.00;;;;;;;;;;5080707;28;20035;-45
2022/02/23 00:07:44;;;;;;;0.20;0.00;;;;;;;;;;5071763;28;20028;-44
2022/02/23 00:10:09;;;;;;;0.20;0.10;;;;;;;;;;5065003;28;20033;-44
2022/02/23 00:12:35;;;;;;;0.30;0.10;;;;;;;;;;5071894;28;20043;-46
2022/02/23 00:15:00;;;;;;;0.40;0.08;;;;;;;;;;5072841;28;20100;-44
2022/02/23 00:17:26;;;;;;;0.40;0.10;;;;;;;;;;5072176;28;20016;-46
2022/02/23 00:19:54;;;;;;;0.20;0.05;;;;;;;;;;5069873;28;20024;-42
2022/02/23 00:22:20;;;;;;;0.20;0.00;;;;;;;;;;5084379;28;20036;-44
2022/02/23 00:24:45;;;;;;;0.20;0.10;;;;;;;;;;5073963;28;20026;-45
2022/02/23 00:27:10;;;;;;;0.85;0.10;;;;;;;;;;5071710;28;20039;-46
2022/02/23 00:29:35;;;;;;;0.47;0.10;;;;;;;;;;5072345;28;20031;-44
2022/02/23 00:32:01;;;;;;;0.73;0.20;;;;;;;;;;5072422;28;20473;-48
2022/02/23 00:34:26;;;;;;;0.73;0.15;;;;;;;;;;5071884;28;20060;-45
2022/02/23 00:36:51;;;;;;;0.25;0.00;;;;;;;;;;5053781;28;20043;-48
2022/02/23 00:39:17;;;;;;;0.52;0.10;;;;;;;;;;5072148;28;20025;-45
2022/02/23 00:41:42;;;;;;;0.50;0.10;;;;;;;;;;5052703;28;20082;-44
2022/02/23 00:44:07;;;;;;;0.68;0.10;;;;;;;;;;5063511;28;20033;-45
2022/02/23 00:46:32;;;;;;;0.32;0.00;;;;;;;;;;5072423;28;20032;-48
2022/02/23 00:48:57;;;;;;;1.05;0.10;;;;;;;;;;5071312;28;20369;-44
2022/02/23 00:51:23;;;;;;;0.38;0.10;;;;;;;;;;5072238;28;20365;-45
2022/02/23 00:53:48;;;;;;;0.35;0.10;;;;;;;;;;5064976;28;20016;-47
2022/02/23 00:56:13;;;;;;;0.90;0.10;;;;;;;;;;5070830;28;20475;-46
2022/02/23 00:58:38;;;;;;;0.13;0.00;;;;;;;;;;5072849;28;20477;-47
2022/02/23 01:01:03;;;;;;;0.10;0.00;;;;;;;;;;5070450;28;20078;-43
2022/02/23 01:03:29;;;;;;;0.52;0.10;;;;;;;;;;5071895;28;20295;-45
2022/02/23 01:05:54;;;;;;;0.68;0.20;;;;;;;;;;5071402;28;20055;-44
2022/02/23 01:08:19;;;;;;;0.93;0.13;;;;;;;;;;5071754;28;20028;-48
2022/02/23 01:10:45;;;;;;;0.50;0.20;;;;;;;;;;5063939;28;20024;-44
2022/02/23 01:13:10;;;;;;;0.90;0.10;;;;;;;;;;5070222;28;20028;-47
2022/02/23 01:15:35;;;;;;;0.30;0.10;;;;;;;;;;5084048;28;20047;-49
2022/02/23 01:18:00;;;;;;;0.65;0.10;;;;;;;;;;5079549;28;20769;-43
2022/02/23 01:20:26;;;;;;;0.60;0.08;;;;;;;;;;5089224;28;20122;-49
2022/02/23 01:22:55;;;;;;;1.40;0.10;;;;;;;;;;5053877;28;20543;-43
2022/02/23 01:25:20;;;;;;;0.63;0.10;;;;;;;;;;5077965;28;20315;-48
2022/02/23 01:27:46;;;;;;;1.13;0.00;;;;;;;;;;5066618;28;20032;-42
2022/02/23 01:30:11;;;;;;;2.20;0.10;;;;;;;;;;5077377;28;20032;-48
2022/02/23 01:32:36;;;;;;;0.20;0.13;;;;;;;;;;5062054;28;20331;-47
2022/02/23 01:35:01;;;;;;;1.00;0.10;;;;;;;;;;5074088;28;20115;-43
2022/02/23 01:37:27;;;;;;;1.95;0.22;;;;;;;;;;5078064;28;20274;-50
2022/02/23 01:39:52;;;;;;;1.50;0.22;;;;;;;;;;5078345;28;20058;-46
2022/02/23 01:42:17;;;;;;;0.70;0.10;;;;;;;;;;5070967;28;20037;-44
2022/02/23 01:44:42;;;;;;;0.95;0.15;;;;;;;;;;5069634;28;20283;-44
2022/02/23 01:47:08;;;;;;;1.13;0.10;;;;;;;;;;5058289;28;20021;-44
2022/02/23 01:49:34;;;;;;;0.45;0.10;;;;;;;;;;5072485;28;20032;-48
2022/02/23 01:51:59;;;;;;;0.60;0.20;;;;;;;;;;5075607;28;20033;-43
2022/02/23 01:54:24;;;;;;;0.65;0.03;;;;;;;;;;5076015;28;20111;-44
2022/02/23 01:56:49;;;;;;;0.50;0.10;;;;;;;;;;5080706;28;20017;-46
2022/02/23 01:59:15;;;;;;;0.53;0.10;;;;;;;;;;5092759;28;20313;-47
2022/02/23 02:01:40;;;;;;;1.58;0.10;;;;;;;;;;5042430;28;20898;-47
2022/02/23 02:04:05;;;;;;;1.65;0.10;;;;;;;;;;5085787;28;20062;-47
2022/02/23 02:06:31;;;;;;;0.43;0.10;;;;;;;;;;5083333;28;20053;-45
2022/02/23 02:08:56;;;;;;;1.20;0.40;;;;;;;;;;5085612;28;20121;-43
2022/02/23 02:11:22;;;;;;;2.70;0.10;;;;;;;;;;5077128;28;20040;-45
2022/02/23 02:13:47;;;;;;;0.93;0.10;;;;;;;;;;5077252;28;20040;-42
2022/02/23 02:16:12;;;;;;;2.30;0.20;;;;;;;;;;5078004;28;20020;-49
2022/02/23 02:18:37;;;;;;;1.13;0.10;;;;;;;;;;5076609;28;20266;-47
2022/02/23 02:21:03;;;;;;;2.70;0.20;;;;;;;;;;5077927;28;20028;-44
2022/02/23 02:23:28;;;;;;;0.65;0.10;;;;;;;;;;5065969;28;20035;-47
2022/02/23 02:25:53;;;;;;;2.30;0.13;;;;;;;;;;5057768;28;20104;-48
2022/02/23 02:28:18;;;;;;;1.50;0.10;;;;;;;;;;5070571;28;20270;-48
2022/02/23 02:30:43;;;;;;;1.98;0.28;;;;;;;;;;5086830;28;20371;-47
2022/02/23 02:33:10;;;;;;;2.08;0.30;;;;;;;;;;5080258;28;20503;-46
2022/02/23 02:35:36;;;;;;;1.10;0.20;;;;;;;;;;5074802;28;20021;-44
2022/02/23 02:38:05;;;;;;;0.77;0.10;;;;;;;;;;5075124;28;20034;-47
2022/02/23 02:40:31;;;;;;;2.13;0.20;;;;;;;;;;5063741;28;20036;-45
2022/02/23 02:42:56;;;;;;;0.93;0.10;;;;;;;;;;5055904;28;20104;-46
2022/02/23 02:45:23;;;;;;;1.70;0.10;;;;;;;;;;5074553;28;20141;-44
2022/02/23 02:47:48;;;;;;;0.93;0.20;;;;;;;;;;5061843;28;20055;-46
2022/02/23 02:50:13;;;;;;;0.60;0.10;;;;;;;;;;5089687;28;20038;-44
2022/02/23 02:52:38;;;;;;;2.00;0.20;;;;;;;;;;5079286;28;20583;-46
2022/02/23 02:55:04;;;;;;;1.35;0.20;;;;;;;;;;5090744;28;20388;-46
2022/02/23 02:57:29;;;;;;;1.25;0.20;;;;;;;;;;5084443;28;20111;-45
2022/02/23 02:59:54;;;;;;;2.10;0.20;;;;;;;;;;5083283;28;20473;-47
2022/02/23 03:02:20;;;;;;;1.20;0.10;;;;;;;;;;5078537;28;20287;-44
2022/02/23 03:04:45;;;;;;;0.68;0.08;;;;;;;;;;5073592;28;20036;-47
2022/02/23 03:07:10;;;;;;;1.00;0.23;;;;;;;;;;5079267;28;20066;-42
2022/02/23 03:09:35;;;;;;;1.20;0.10;;;;;;;;;;5094225;28;20642;-46
2022/02/23 03:12:00;;;;;;;1.25;0.20;;;;;;;;;;5090082;28;20029;-45
2022/02/23 03:14:26;;;;;;;1.05;0.17;;;;;;;;;;5073270;28;20503;-48
2022/02/23 03:16:51;;;;;;;2.45;0.40;;;;;;;;;;5073774;28;20031;-46
2022/02/23 03:19:16;;;;;;;1.40;0.20;;;;;;;;;;5073537;28;20024;-46
2022/02/23 03:21:41;;;;;;;1.23;0.10;;;;;;;;;;5078801;28;20024;-48
2022/02/23 03:24:07;;;;;;;1.77;0.20;;;;;;;;;;5055061;28;20642;-47
2022/02/23 03:26:32;;;;;;;1.55;0.60;;;;;;;;;;5068861;28;20027;-49
2022/02/23 03:28:57;;;;;;;1.13;0.10;;;;;;;;;;5053389;28;20456;-47
2022/02/23 03:31:22;;;;;;;1.40;0.17;;;;;;;;;;5057775;28;20029;-44
2022/02/23 03:33:48;;;;;;;2.90;0.28;;;;;;;;;;5081137;28;20303;-45
2022/02/23 03:36:14;;;;;;;0.85;0.10;;;;;;;;;;5073133;28;20089;-43
2022/02/23 03:38:39;;;;;;;1.45;0.38;;;;;;;;;;5073203;28;20029;-47
2022/02/23 03:41:05;;;;;;;1.02;0.10;;;;;;;;;;5072535;28;20164;-45
2022/02/23 03:43:31;;;;;;;2.67;0.30;;;;;;;;;;5073933;28;20535;-45
2022/02/23 03:45:56;;;;;;;1.48;0.20;;;;;;;;;;5080317;28;20063;-42
2022/02/23 03:48:21;;;;;;;1.20;0.20;;;;;;;;;;5093058;28;20032;-43
2022/02/23 03:50:46;;;;;;;2.25;0.20;;;;;;;;;;5089787;28;20275;-42
2022/02/23 03:53:12;;;;;;;1.30;0.20;;;;;;;;;;5073670;28;20455;-48
2022/02/23 03:55:37;;;;;;;0.50;0.10;;;;;;;;;;5072953;28;20029;-46
2022/02/23 03:58:02;;;;;;;1.92;0.20;;;;;;;;;;5072181;28;20033;-45
2022/02/23 04:00:28;;;;;;;1.25;0.20;;;;;;;;;;5088887;28;20024;-44
2022/02/23 04:02:53;;;;;;;1.95;0.13;;;;;;;;;;5075196;28;20409;-45
2022/02/23 04:05:18;;;;;;;1.38;0.17;;;;;;;;;;5082341;28;20029;-45
2022/02/23 04:07:43;;;;;;;1.83;0.20;;;;;;;;;;5072464;28;20038;-47
2022/02/23 04:10:08;;;;;;;1.48;0.45;;;;;;;;;;5072859;28;20025;-47
2022/02/23 04:12:34;;;;;;;2.80;0.32;;;;;;;;;;5072319;28;20032;-46
2022/02/23 04:14:59;;;;;;;2.40;0.30;;;;;;;;;;5084490;28;20043;-45
2022/02/23 04:17:25;;;;;;;3.17;0.40;;;;;;;;;;5089643;28;20024;-45
2022/02/23 04:19:50;;;;;;;1.98;0.20;;;;;;;;;;5072141;28;20066;-48
2022/02/23 04:22:15;;;;;;;3.85;0.75;;;;;;;;;;5068430;28;20029;-46
2022/02/23 04:24:40;;;;;;;2.50;0.30;;;;;;;;;;5059526;28;20033;-47
2022/02/23 04:27:06;;;;;;;2.33;0.30;;;;;;;;;;5052094;28;20078;-43
2022/02/23 04:29:31;;;;;;;3.08;0.45;;;;;;;;;;5069114;28;20392;-46
2022/02/23 04:31:57;;;;;;;1.45;0.20;;;;;;;;;;5061917;28;20047;-47
2022/02/23 04:34:22;;;;;;;4.93;0.55;;;;;;;;;;5082753;28;20553;-44
2022/02/23 04:36:47;;;;;;;3.10;0.65;;;;;;;;;;5087474;28;20075;-45
2022/02/23 04:39:13;;;;;;;2.85;0.68;;;;;;;;;;5080285;28;20477;-47
2022/02/23 04:41:38;;;;;;;5.00;0.55;;;;;;;;;;5052756;28;20024;-45
2022/02/23 04:44:04;;;;;;;3.05;0.50;;;;;;;;;;5044240;28;20024;-45
2022/02/23 04:46:29;;;;;;;3.30;0.38;;;;;;;;;;5075928;28;20029;-48
2022/02/23 04:48:55;;;;;;;2.65;0.65;;;;;;;;;;5071213;28;20032;-46
2022/02/23 04:51:20;;;;;;;3.73;0.50;;;;;;;;;;5087409;28;20074;-45
2022/02/23 04:53:45;;;;;;;3.40;0.55;;;;;;;;;;5067705;28;20289;-47
2022/02/23 04:56:10;;;;;;;1.50;0.30;;;;;;;;;;5085482;28;20031;-45
2022/02/23 04:58:36;;;;;;;3.58;0.40;;;;;;;;;;5090927;28;20388;-44
2022/02/23 05:01:01;;;;;;;2.90;0.30;;;;;;;;;;5077556;28;20100;-48
2022/02/23 05:03:27;;;;;;;3.42;0.35;;;;;;;;;;5075424;28;20642;-47
2022/02/23 05:05:52;;;;;;;1.38;0.40;;;;;;;;;;5071971;28;20107;-44
2022/02/23 05:08:18;;;;;;;2.75;0.38;;;;;;;;;;5073209;28;20040;-44
2022/02/23 05:10:44;;;;;;;1.55;0.45;;;;;;;;;;5070409;28;20035;-42
2022/02/23 05:13:09;;;;;;;2.03;0.50;;;;;;;;;;5072424;28;20028;-45
2022/02/23 05:15:35;;;;;;;2.72;0.25;;;;;;;;;;5086166;28;20036;-48
2022/02/23 05:18:00;;;;;;;2.53;0.57;;;;;;;;;;5077314;28;20082;-44
2022/02/23 05:20:27;;;;;;;4.20;0.33;;;;;;;;;;5071169;28;20028;-49
2022/02/23 05:22:52;;;;;;;3.03;0.40;;;;;;;;;;5067902;28;20393;-46
2022/02/23 05:25:17;;;;;;;2.40;0.30;;;;;;;;;;5080670;28;20107;-46
2022/02/23 05:27:43;;;;;;;4.05;0.57;;;;;;;;;;5072726;28;20081;-46
2022/02/23 05:30:08;;;;;;;3.00;0.40;;;;;;;;;;5091954;28;20033;-47
2022/02/23 05:32:34;;;;;;;2.85;0.50;;;;;;;;;;5077911;28;20028;-48
2022/02/23 05:34:59;;;;;;;2.97;0.50;;;;;;;;;;5071571;28;20163;-49
2022/02/23 05:37:24;;;;;;;3.03;0.40;;;;;;;;;;5071571;28;20040;-47
2022/02/23 05:39:50;;;;;;;3.13;0.57;;;;;;;;;;5080274;28;20021;-48
2022/02/23 05:42:15;;;;;;;4.57;0.57;;;;;;;;;;5076311;28;20036;-48
2022/02/23 05:44:40;;;;;;;3.42;0.30;;;;;;;;;;5071695;28;20040;-47
2022/02/23 05:47:05;;;;;;;3.72;0.50;;;;;;;;;;5071323;28;20032;-45
2022/02/23 05:49:30;;;;;;;2.65;0.45;;;;;;;;;;5071366;28;20024;-46
2022/02/23 05:51:56;;;;;;;3.40;0.40;;;;;;;;;;5069331;28;20081;-43
2022/02/23 05:54:21;;;;;;;2.50;0.35;;;;;;;;;;5059378;28;20306;-45
2022/02/23 05:56:47;;;;;;;1.98;0.20;;;;;;;;;;5081681;28;20054;-45
2022/02/23 05:59:12;;;;;;;3.00;0.60;;;;;;;;;;5068865;28;20016;-49
2022/02/23 06:01:37;;;;;;;2.75;0.30;;;;;;;;;;5079142;28;20020;-47
2022/02/23 06:04:03;;;;;;;4.18;0.32;;;;;;;;;;5079298;28;20032;-45
2022/02/23 06:06:28;;;;;;;0.82;0.10;;;;;;;;;;5075418;28;20036;-48
2022/02/23 06:08:53;;;;;;;1.85;0.50;;;;;;;;;;5077695;28;20024;-47
2022/02/23 06:11:19;;;;;;;2.83;0.40;;;;;;;;;;5060959;28;20086;-45
2022/02/23 06:13:50;;;;;;;2.03;0.40;;;;;;;;;;5072163;28;20354;-45
2022/02/23 06:16:16;;;;;;;3.80;0.45;;;;;;;;;;5082597;28;20474;-46
2022/02/23 06:18:41;;;;;;;3.63;0.40;;;;;;;;;;5073295;28;20035;-47
2022/02/23 06:21:06;;;;;;;4.38;0.30;;;;;;;;;;5074341;28;20384;-46
2022/02/23 06:23:33;;;;;;;2.53;0.30;;;;;;;;;;5069063;28;20369;-50
2022/02/23 06:25:58;;;;;;;2.92;0.43;;;;;;;;;;5064442;28;20342;-47
2022/02/23 06:28:23;;;;;;;2.65;0.40;;;;;;;;;;5059907;28;20452;-45
2022/02/23 06:30:48;;;;;;;4.35;0.80;;;;;;;;;;5083793;28;20127;-46
2022/02/23 06:33:18;;;;;;;5.00;0.43;;;;;;;;;;5075320;28;20028;-50
2022/02/23 06:35:43;;;;;;;5.10;0.50;;;;;;;;;;5063456;28;20036;-46
2022/02/23 06:38:08;;;;;;;6.15;0.50;;;;;;;;;;5066085;28;20040;-44
2022/02/23 06:40:33;;;;;;;2.80;0.45;;;;;;;;;;5084216;28;20035;-47
2022/02/23 06:42:59;;;;;;;5.28;0.60;;;;;;;;;;5075753;28;20028;-44
2022/02/23 06:45:25;;;;;;;2.42;0.45;;;;;;;;;;5092066;28;20027;-48
2022/02/23 06:47:50;;;;;;;3.60;0.65;;;;;;;;;;5074777;28;20032;-48
2022/02/23 06:50:16;;;;;;;2.85;0.70;;;;;;;;;;5073518;28;20103;-46
2022/02/23 06:52:41;;;;;;;3.50;0.50;;;;;;;;;;5073618;28;20032;-44
2022/02/23 06:55:07;;;;;;;2.78;0.60;;;;;;;;;;5063296;28;20063;-45
2022/02/23 06:57:39;;;;;;;2.88;0.52;;;;;;;;;;5074264;28;20024;-46
2022/02/23 07:00:06;;;;;;;2.20;0.47;;;;;;;;;;5062258;28;20527;-46
2022/02/23 07:02:31;;;;;;;6.43;1.10;;;;;;;;;;5074977;28;20104;-44
2022/02/23 07:04:56;;;;;;;3.90;0.68;;;;;;;;;;5074641;28;20238;-48
2022/02/23 07:07:22;;;;;;;3.93;0.57;;;;;;;;;;5070980;28;20029;-43
2022/02/23 07:09:47;;;;;;;4.70;0.57;;;;;;;;;;5066042;28;20698;-47
2022/02/23 07:12:12;;;;;;;3.58;0.38;;;;;;;;;;5073453;28;20029;-44
2022/02/23 07:14:38;;;;;;;3.13;0.50;;;;;;;;;;5072966;28;20036;-45
2022/02/23 07:17:03;;;;;;;2.30;0.20;;;;;;;;;;5047176;28;20027;-45
2022/02/23 07:19:28;;;;;;;1.73;0.30;;;;;;;;;;5065090;28;20024;-45
2022/02/23 07:21:53;;;;;;;3.90;0.30;;;;;;;;;;5063955;28;20484;-45
2022/02/23 07:24:19;;;;;;;4.47;0.68;;;;;;;;;;5065403;28;20074;-45
2022/02/23 07:26:44;;;;;;;3.42;0.60;;;;;;;;;;5067442;28;20024;-45
2022/02/23 07:29:11;;;;;;;2.65;0.50;;;;;;;;;;5073534;28;20115;-45
2022/02/23 07:31:36;;;;;;;3.78;0.50;;;;;;;;;;5075166;28;20020;-44
2022/02/23 07:34:01;;;;;;;3.47;0.45;;;;;;;;;;5073286;28;20017;-44
2022/02/23 07:36:27;;;;;;;3.70;0.38;;;;;;;;;;5069789;28;20099;-44
2022/02/23 07:38:53;;;;;;;3.70;0.60;;;;;;;;;;5054677;28;20038;-48
2022/02/23 07:41:23;;;;;;;3.45;0.50;;;;;;;;;;5072986;28;20104;-46
2022/02/23 07:43:52;;;;;;;3.70;0.70;;;;;;;;;;5070839;28;20404;-49
2022/02/23 07:46:17;;;;;;;5.03;0.40;;;;;;;;;;5069652;28;20020;-45
2022/02/23 07:48:44;;;;;;;6.10;0.63;;;;;;;;;;5065496;28;20036;-47
2022/02/23 07:51:09;;;;;;;4.45;0.40;;;;;;;;;;5053139;28;20478;-49
2022/02/23 07:53:35;;;;;;;3.50;0.30;;;;;;;;;;5053875;28;20020;-45
2022/02/23 07:56:00;;;;;;;3.33;0.30;;;;;;;;;;5060268;28;20536;-49
2022/02/23 07:58:25;;;;;;;3.95;0.40;;;;;;;;;;5063025;28;20021;-47
2022/02/23 08:00:50;;;;;;;3.22;0.50;;;;;;;;;;5053007;28;20036;-48
2022/02/23 08:03:16;;;;;;;1.60;0.35;;;;;;;;;;5071890;28;20048;-45
2022/02/23 08:05:42;;;;;;;5.07;0.60;;;;;;;;;;5063706;28;20523;-50
2022/02/23 08:08:08;;;;;;;1.73;0.28;;;;;;;;;;5071068;28;20024;-47
2022/02/23 08:10:33;;;;;;;3.25;0.80;;;;;;;;;;5055734;28;20103;-48
2022/02/23 08:12:58;;;;;;;3.53;0.40;;;;;;;;;;5061064;28;20031;-46
2022/02/23 08:20:52;;;;;;;4.80;0.40;;;;;;;;;;5053193;28;20043;-46
2022/02/23 08:23:18;;;;;;;3.15;0.50;;;;;;;;;;5048454;28;20044;-50
2022/02/23 08:25:44;;;;;;;3.50;0.68;;;;;;;;;;5060641;28;20032;-47
2022/02/23 08:28:09;;;;;;;3.47;0.77;;;;;;;;;;5050871;28;20036;-50
2022/02/23 08:30:34;;;;;;;4.82;0.43;;;;;;;;;;5053356;28;20025;-48
2022/02/23 08:33:02;;;;;;;3.45;0.47;;;;;;;;;;5069696;28;20569;-47
2022/02/23 08:35:28;;;;;;;3.88;0.70;;;;;;;;;;5071866;28;20036;-44
2022/02/23 08:37:53;;;;;;;2.40;0.38;;;;;;;;;;5057555;28;20020;-48
2022/02/23 08:40:18;;;;;;;1.87;0.20;;;;;;;;;;5054367;28;20424;-47
2022/02/23 08:42:44;;;;;;;3.47;0.38;;;;;;;;;;5064455;28;20269;-48
2022/02/23 08:45:09;;;;;;;3.17;0.40;;;;;;;;;;5078031;28;20027;-48
2022/02/23 08:47:34;;;;;;;3.53;0.40;;;;;;;;;;5070718;28;20549;-46
2022/02/23 08:50:00;;;;;;;2.78;0.60;;;;;;;;;;5070291;28;20500;-47
2022/02/23 08:52:25;;;;;;;4.18;0.68;;;;;;;;;;5065580;28;20370;-48
2022/02/23 08:54:50;;;;;;;3.55;0.43;;;;;;;;;;5051449;28;20027;-48
2022/02/23 08:57:15;;;;;;;2.35;0.50;;;;;;;;;;5052141;28;20025;-45
2022/02/23 08:59:40;;;;;;;3.17;0.40;;;;;;;;;;5051158;28;20025;-48
2022/02/23 09:02:06;;;;;;;3.13;0.70;;;;;;;;;;5051599;28;20402;-47
2022/02/23 09:04:31;;;;;;;4.00;0.40;;;;;;;;;;5052893;28;20029;-48
2022/02/23 09:06:57;;;;;;;2.55;0.30;;;;;;;;;;5051849;28;20029;-46
2022/02/23 09:09:22;;;;;;;3.63;0.68;;;;;;;;;;5051968;28;20033;-44
2022/02/23 09:11:47;;;;;;;4.22;0.50;;;;;;;;;;5071385;28;20107;-46
2022/02/23 09:14:13;;;;;;;2.47;0.30;;;;;;;;;;5063043;28;20385;-48
2022/02/23 09:16:38;;;;;;;2.20;0.40;;;;;;;;;;5058095;28;20385;-50
2022/02/23 09:19:04;;;;;;;2.05;0.20;;;;;;;;;;5058524;28;20017;-44
2022/02/23 09:21:29;;;;;;;3.10;0.20;;;;;;;;;;5061230;28;20039;-46
2022/02/23 09:23:54;;;;;;;3.63;0.50;;;;;;;;;;5053983;28;20099;-45
2022/02/23 09:26:20;;;;;;;1.85;0.28;;;;;;;;;;5066581;28;20284;-45
2022/02/23 09:28:45;;;;;;;3.20;0.43;;;;;;;;;;5054517;28;20112;-48
2022/02/23 09:31:12;;;;;;;2.70;0.40;;;;;;;;;;5084169;28;20071;-46
2022/02/23 09:33:37;;;;;;;3.50;0.20;;;;;;;;;;5044041;28;20020;-49
2022/02/23 09:36:03;;;;;;;4.38;0.45;;;;;;;;;;5084984;28;20035;-49
2022/02/23 09:38:30;;;;;;;3.38;0.30;;;;;;;;;;5062072;28;20103;-45
2022/02/23 09:40:57;;;;;;;3.15;0.50;;;;;;;;;;5062450;28;20069;-45
2022/02/23 09:43:22;;;;;;;2.40;0.35;;;;;;;;;;5056595;28;20032;-44
2022/02/23 09:45:54;;;;;;;5.43;0.60;;;;;;;;;;5075924;28;20025;-46
2022/02/23 09:48:20;;;;;;;2.90;0.45;;;;;;;;;;5074611;28;20124;-43
2022/02/23 09:50:45;;;;;;;5.50;0.50;;;;;;;;;;5068792;28;20108;-51
2022/02/23 09:53:11;;;;;;;2.38;0.38;;;;;;;;;;5075132;28;20027;-46
2022/02/23 09:55:36;;;;;;;4.70;0.40;;;;;;;;;;5087547;28;20068;-47
2022/02/23 09:58:01;;;;;;;3.95;0.30;;;;;;;;;;5079142;28;20031;-47
2022/02/23 10:00:28;;;;;;;3.47;0.40;;;;;;;;;;5064477;28;20017;-46
2022/02/23 10:02:54;;;;;;;2.83;0.60;;;;;;;;;;5057852;28;20544;-45
2022/02/23 10:05:21;;;;;;;3.75;0.60;;;;;;;;;;5075093;28;20023;-47
2022/02/23 10:07:46;;;;;;;2.88;0.45;;;;;;;;;;5070396;28;20029;-49
2022/02/23 10:10:13;;;;;;;4.10;0.40;;;;;;;;;;5053628;28;20070;-41
2022/02/23 10:12:41;;;;;;;4.75;0.75;;;;;;;;;;5060997;28;20037;-46
2022/02/23 10:15:07;;;;;;;5.50;1.10;;;;;;;;;;5055042;28;20013;-48
2022/02/23 10:17:40;;;;;;;6.53;1.80;;;;;;;;;;5065517;28;20016;-47
2022/02/23 10:20:19;;;;;;;7.78;1.50;;;;;;;;;;5065869;28;20020;-50
2022/02/23 10:22:45;;;;;;;7.10;1.38;;;;;;;;;;5064556;28;20020;-47
2022/02/23 10:25:11;;;;;;;6.10;1.52;;;;;;;;;;5079140;28;20084;-48
2022/02/23 10:27:37;;;;;;;6.03;1.50;;;;;;;;;;5086015;28;20028;-49
2022/02/23 10:30:03;;;;;;;8.80;1.98;;;;;;;;;;5070356;28;20028;-46
2022/02/23 10:32:28;;;;;;;8.00;2.45;;;;;;;;;;5065231;28;20505;-46
2022/02/23 10:34:55;;;;;;;7.28;1.52;;;;;;;;;;5061615;28;20025;-48
2022/02/23 10:37:21;;;;;;;6.72;1.25;;;;;;;;;;5063278;28;20031;-46
2022/02/23 10:39:51;;;;;;;6.90;1.15;;;;;;;;;;5046552;28;20358;-43
2022/02/23 10:42:17;;;;;;;5.88;1.30;;;;;;;;;;5066467;28;20016;-46
2022/02/23 10:44:47;;;;;;;8.90;1.20;;;;;;;;;;5062268;28;20028;-49
2022/02/23 10:47:33;;;;;;;5.38;1.55;;;;;;;;;;5066608;28;20021;-43
2022/02/23 10:49:59;;;;;;;5.15;1.23;;;;;;;;;;5072059;28;20032;-48
2022/02/23 10:52:27;;;;;;;4.53;0.90;;;;;;;;;;5069754;28;20035;-49
2022/02/23 10:55:09;;;;;;;3.90;0.63;;;;;;;;;;5056587;28;20108;-44
2022/02/23 10:57:34;;;;;;;4.63;0.80;;;;;;;;;;5053298;28;20021;-47
2022/02/23 11:00:10;;;;;;;5.37;0.77;;;;;;;;;;5065755;28;20112;-50
2022/02/23 11:02:36;;;;;;;3.85;0.88;;;;;;;;;;5056302;28;20295;-47
2022/02/23 11:05:01;;;;;;;3.38;0.85;;;;;;;;;;5064058;28;20051;-43
2022/02/23 11:07:26;;;;;;;3.38;0.80;;;;;;;;;;5054095;28;20037;-47
2022/02/23 11:09:51;;;;;;;4.95;0.93;;;;;;;;;;5067120;28;20116;-49
2022/02/23 11:12:16;;;;;;;5.03;1.13;;;;;;;;;;5060703;28;20028;-49
2022/02/23 11:14:42;;;;;;;4.78;0.77;;;;;;;;;;5072972;28;20354;-48
2022/02/23 11:17:08;;;;;;;2.28;0.40;;;;;;;;;;5056696;28;20025;-44
2022/02/23 11:19:35;;;;;;;7.18;0.70;;;;;;;;;;5059398;28;20025;-44
2022/02/23 11:22:02;;;;;;;2.95;0.60;;;;;;;;;;5069582;28;20096;-43
2022/02/23 11:24:27;;;;;;;3.92;0.55;;;;;;;;;;5081525;28;20056;-45
2022/02/23 11:26:54;;;;;;;1.88;0.60;;;;;;;;;;5077992;28;20055;-47
2022/02/23 11:29:46;;;;;;;4.18;0.98;;;;;;;;;;5089983;28;20020;-45
2022/02/23 11:32:11;;;;;;;5.22;0.57;;;;;;;;;;5047487;28;20056;-47
2022/02/23 11:34:37;;;;;;;3.55;0.50;;;;;;;;;;5061622;28;20377;-47
2022/02/23 11:37:08;;;;;;;3.00;0.60;;;;;;;;;;5059902;28;20027;-50
2022/02/23 11:39:38;;;;;;;3.45;0.40;;;;;;;;;;5067939;28;20021;-49
2022/02/23 11:42:07;;;;;;;3.72;0.40;;;;;;;;;;5064793;28;20385;-45
2022/02/23 11:44:35;;;;;;;3.38;0.30;;;;;;;;;;5072372;28;20021;-47
2022/02/23 11:47:09;;;;;;;3.13;0.68;;;;;;;;;;5065943;28;20024;-44
2022/02/23 11:49:35;;;;;;;4.20;0.68;;;;;;;;;;5071219;28;20020;-48
2022/02/23 11:52:08;;;;;;;4.47;0.55;;;;;;;;;;5053815;28;20037;-48
2022/02/23 11:54:48;;;;;;;4.60;0.70;;;;;;;;;;5055780;28;20021;-47
2022/02/23 12:00:29;;;;;;;3.40;0.47;;;;;;;;;;5071322;28;20052;-46
2022/02/23 12:03:05;;;;;;;4.85;0.77;;;;;;;;;;5070213;28;20094;-45
2022/02/23 12:05:40;;;;;;;2.67;0.40;;;;;;;;;;5071543;28;20032;-46
2022/02/23 12:08:07;;;;;;;4.18;0.60;;;;;;;;;;5064387;28;20028;-43
2022/02/23 12:10:33;;;;;;;3.10;0.63;;;;;;;;;;5064004;28;20017;-46
2022/02/23 12:12:59;;;;;;;2.63;0.57;;;;;;;;;;5058095;28;20028;-49
2022/02/23 12:15:31;;;;;;;2.22;0.50;;;;;;;;;;5062668;28;20028;-45
2022/02/23 12:18:00;;;;;;;2.40;0.30;;;;;;;;;;5071919;28;20013;-42
2022/02/23 12:20:37;;;;;;;2.47;0.30;;;;;;;;;;5071463;28;20013;-47
2022/02/23 12:23:07;;;;;;;3.03;0.40;;;;;;;;;;5059062;28;20020;-47
2022/02/23 12:25:48;;;;;;;3.60;0.43;;;;;;;;;;5064889;28;20031;-46
2022/02/23 12:28:17;;;;;;;3.13;0.50;;;;;;;;;;5064819;28;20032;-46
2022/02/23 12:30:51;;;;;;;2.60;0.40;;;;;;;;;;5045119;28;20029;-46
2022/02/23 12:33:16;;;;;;;2.10;0.30;;;;;;;;;;5068222;28;20067;-46
2022/02/23 12:35:44;;;;;;;2.50;0.40;;;;;;;;;;5067704;28;20037;-46
2022/02/23 12:38:10;;;;;;;5.00;0.45;;;;;;;;;;5054117;28;20013;-45
2022/02/23 12:40:36;;;;;;;3.28;0.30;;;;;;;;;;5060321;28;20370;-44
2022/02/23 12:43:05;;;;;;;2.50;0.55;;;;;;;;;;5071765;28;20515;-45
2022/02/23 12:45:30;;;;;;;3.97;0.80;;;;;;;;;;5063914;28;20016;-42
2022/02/23 12:48:01;;;;;;;2.33;0.28;;;;;;;;;;5092378;28;20380;-43
2022/02/23 12:50:28;;;;;;;4.60;0.43;;;;;;;;;;5080377;28;20107;-48
2022/02/23 12:52:53;;;;;;;2.10;0.52;;;;;;;;;;5059570;28;20032;-45
2022/02/23 12:55:19;;;;;;;1.60;0.40;;;;;;;;;;5056403;28;20013;-45
2022/02/23 12:57:44;;;;;;;2.28;0.20;;;;;;;;;;5068972;28;20033;-48
2022/02/23 13:00:10;;;;;;;1.67;0.40;;;;;;;;;;5064858;28;20075;-49
2022/02/23 13:02:35;;;;;;;3.50;0.40;;;;;;;;;;5062784;28;20562;-45
2022/02/23 13:05:00;;;;;;;2.85;0.40;;;;;;;;;;5071471;28;20127;-47
2022/02/23 13:07:26;;;;;;;1.15;0.20;;;;;;;;;;5055247;28;20033;-46
2022/02/23 13:09:53;;;;;;;2.38;0.30;;;;;;;;;;5051767;28;20021;-48
2022/02/23 13:12:19;;;;;;;1.73;0.30;;;;;;;;;;5054594;28;20048;-50
2022/02/23 13:14:46;;;;;;;1.33;0.30;;;;;;;;;;5061894;28;20021;-48
2022/02/23 13:17:12;;;;;;;1.30;0.30;;;;;;;;;;5052711;28;20021;-52
2022/02/23 13:19:39;;;;;;;2.13;0.52;;;;;;;;;;5063023;28;20155;-49
2022/02/23 13:22:05;;;;;;;2.90;0.40;;;;;;;;;;5064877;28;20086;-46
2022/02/23 13:24:33;;;;;;;2.95;0.50;;;;;;;;;;5061732;28;20055;-46
2022/02/23 13:27:02;;;;;;;2.45;0.50;;;;;;;;;;5045088;28;20542;-48
2022/02/23 13:29:27;;;;;;;2.53;0.30;;;;;;;;;;5051439;28;20033;-45
2022/02/23 13:31:59;;;;;;;2.83;0.32;;;;;;;;;;5065424;28;20040;-47
2022/02/23 13:34:35;;;;;;;2.05;0.32;;;;;;;;;;5063924;28;20017;-48
2022/02/23 13:37:14;;;;;;;4.53;0.30;;;;;;;;;;5058123;28;20025;-46
2022/02/23 13:39:42;;;;;;;3.25;0.30;;;;;;;;;;5057845;28;20648;-49
2022/02/23 13:42:09;;;;;;;2.65;0.50;;;;;;;;;;5054502;28;20035;-48
2022/02/23 13:44:34;;;;;;;2.35;0.50;;;;;;;;;;5061884;28;20044;-45
2022/02/23 13:47:05;;;;;;;2.08;0.60;;;;;;;;;;5066241;28;20477;-45
2022/02/23 13:49:31;;;;;;;2.65;0.40;;;;;;;;;;5053977;28;20037;-48
2022/02/23 13:51:57;;;;;;;3.15;0.40;;;;;;;;;;5080695;28;20039;-43
2022/02/23 13:54:22;;;;;;;2.45;0.20;;;;;;;;;;5048167;28;20017;-47
2022/02/23 13:56:49;;;;;;;1.77;0.30;;;;;;;;;;5063209;28;20364;-51
2022/02/23 13:59:16;;;;;;;2.10;0.40;;;;;;;;;;5065615;28;20119;-49
2022/02/23 14:02:00;;;;;;;2.08;0.25;;;;;;;;;;5057491;28;20094;-42
2022/02/23 14:04:35;;;;;;;2.65;0.30;;;;;;;;;;5053221;28;20009;-46
2022/02/23 14:07:00;;;;;;;3.70;0.20;;;;;;;;;;5068953;28;20091;-44
2022/02/23 14:09:25;;;;;;;2.40;0.40;;;;;;;;;;5055618;28;20592;-47
2022/02/23 14:11:57;;;;;;;3.80;0.40;;;;;;;;;;5056758;28;20270;-45
2022/02/23 14:14:22;;;;;;;3.03;0.45;;;;;;;;;;5078053;28;20017;-46
2022/02/23 14:16:47;;;;;;;2.27;0.20;;;;;;;;;;5073487;28;20038;-49
2022/02/23 14:19:16;;;;;;;3.45;0.55;;;;;;;;;;5079437;28;20479;-45
2022/02/23 14:21:45;;;;;;;3.67;0.40;;;;;;;;;;5060582;28;20016;-42
2022/02/23 14:24:15;;;;;;;1.80;0.20;;;;;;;;;;5050646;28;20021;-43
2022/02/23 14:26:50;;;;;;;3.33;0.32;;;;;;;;;;5066575;28;20037;-45
2022/02/23 14:29:16;;;;;;;1.73;0.40;;;;;;;;;;5078517;28;20024;-46
2022/02/23 14:31:45;;;;;;;1.83;0.30;;;;;;;;;;5084976;28;20016;-45
2022/02/23 14:34:15;;;;;;;1.08;0.35;;;;;;;;;;5068836;28;20035;-43
2022/02/23 14:36:40;;;;;;;1.52;0.20;;;;;;;;;;5057600;28;20606;-48
2022/02/23 14:39:06;;;;;;;4.22;0.35;;;;;;;;;;5072698;28;20033;-45
2022/02/23 14:41:32;;;;;;;2.42;0.20;;;;;;;;;;5077960;28;20039;-46
2022/02/23 14:43:59;;;;;;;2.55;0.40;;;;;;;;;;5084069;28;20015;-44
2022/02/23 14:46:24;;;;;;;1.23;0.30;;;;;;;;;;5088943;28;20519;-46